createdAt,value
2023-05-10T00:01:25.773Z,1.48
2023-05-10T00:03:53.079Z,1.30
2023-05-10T00:06:20.438Z,1.27
2023-05-10T00:08:47.284Z,1.45
2023-05-10T00:11:14.203Z,1.30
2023-05-10T00:13:46.680Z,1.50
2023-05-10T00:16:16.646Z,1.60
2023-05-10T00:18:44.238Z,1.35
2023-05-10T00:21:11.164Z,1.50
2023-05-10T00:23:38.717Z,1.73
2023-05-10T00:26:05.708Z,1.73
2023-05-10T00:28:32.706Z,1.85
2023-05-10T00:30:59.753Z,2.28
2023-05-10T00:33:29.723Z,2.08
2023-05-10T00:35:56.776Z,1.50
2023-05-10T00:38:23.818Z,2.25
2023-05-10T00:40:50.925Z,2.13
2023-05-10T00:43:18.168Z,2.30
2023-05-10T00:45:45.092Z,2.88
2023-05-10T00:48:11.824Z,2.40
2023-05-10T00:50:39.097Z,2.45
2023-05-10T00:53:06.161Z,2.90
2023-05-10T00:55:33.203Z,2.20
2023-05-10T00:58:00.853Z,2.67
2023-05-10T01:00:28.003Z,2.80
2023-05-10T01:02:57.383Z,2.70
2023-05-10T01:05:24.362Z,3.00
2023-05-10T01:07:51.269Z,2.45
2023-05-10T01:10:21.394Z,3.20
2023-05-10T01:12:48.786Z,2.95
2023-05-10T01:15:15.907Z,3.00
2023-05-10T01:17:48.233Z,2.90
2023-05-10T01:20:15.575Z,3.00
2023-05-10T01:22:58.943Z,3.40
2023-05-10T01:26:04.005Z,2.72
2023-05-10T01:31:29.245Z,2.90
2023-05-10T01:34:11.093Z,3.40
2023-05-10T01:36:50.724Z,2.85
2023-05-10T01:39:51.512Z,3.17
2023-05-10T01:42:22.794Z,2.65
2023-05-10T01:45:03.931Z,3.03
2023-05-10T01:47:38.059Z,3.03
2023-05-10T01:52:39.415Z,3.35
2023-05-10T01:55:12.862Z,2.08
2023-05-10T01:57:40.716Z,2.53
2023-05-10T02:00:11.003Z,3.20
2023-05-10T02:02:39.146Z,3.40
2023-05-10T02:05:09.527Z,3.20
2023-05-10T02:07:39.607Z,3.03
2023-05-10T02:10:07.577Z,3.13
2023-05-10T02:12:37.043Z,3.00
2023-05-10T02:15:05.751Z,3.08
2023-05-10T02:17:33.650Z,3.30
2023-05-10T02:20:01.131Z,3.15
2023-05-10T02:22:30.518Z,2.85
2023-05-10T02:24:57.378Z,3.40
2023-05-10T02:27:24.791Z,3.22
2023-05-10T02:29:51.634Z,2.85
2023-05-10T02:32:19.172Z,3.20
2023-05-10T02:34:46.711Z,3.15
2023-05-10T02:37:15.022Z,2.78
2023-05-10T02:39:46.857Z,2.40
2023-05-10T02:42:20.918Z,2.83
2023-05-10T02:47:15.591Z,3.40
2023-05-10T02:49:42.634Z,2.97
2023-05-10T02:52:10.336Z,3.47
2023-05-10T02:54:45.852Z,2.65
2023-05-10T02:57:21.831Z,3.65
2023-05-10T02:59:48.739Z,2.90
2023-05-10T03:02:15.726Z,3.13
2023-05-10T03:04:42.683Z,2.72
2023-05-10T03:07:10.261Z,2.63
2023-05-10T03:09:37.180Z,2.78
2023-05-10T03:12:15.658Z,3.13
2023-05-10T03:14:45.593Z,2.60
2023-05-10T03:17:31.983Z,2.90
2023-05-10T03:19:59.768Z,3.30
2023-05-10T03:22:30.613Z,3.28
2023-05-10T03:24:58.769Z,3.35
2023-05-10T03:27:26.485Z,3.28
2023-05-10T03:29:54.663Z,3.20
2023-05-10T03:32:21.612Z,3.35
2023-05-10T03:34:48.661Z,2.58
2023-05-10T03:37:15.635Z,3.47
2023-05-10T03:39:42.559Z,3.55
2023-05-10T03:42:12.795Z,3.60
2023-05-10T03:44:42.760Z,4.00
2023-05-10T03:47:12.145Z,3.47
2023-05-10T03:49:42.064Z,3.97
2023-05-10T03:52:09.104Z,3.83
2023-05-10T03:54:39.041Z,3.97
2023-05-10T03:57:06.054Z,4.32
2023-05-10T03:59:33.100Z,4.68
2023-05-10T04:02:00.360Z,4.25
2023-05-10T04:04:27.419Z,3.83
2023-05-10T04:06:54.494Z,4.07
2023-05-10T04:09:21.392Z,4.40
2023-05-10T04:11:48.399Z,4.68
2023-05-10T04:14:15.442Z,4.50
2023-05-10T04:16:42.544Z,4.65
2023-05-10T04:19:09.536Z,4.80
2023-05-10T04:21:36.500Z,5.15
2023-05-10T04:24:03.531Z,4.65
2023-05-10T04:26:32.417Z,4.72
2023-05-10T04:28:59.512Z,5.05
2023-05-10T04:31:27.332Z,5.25
2023-05-10T04:33:54.254Z,4.97
2023-05-10T04:36:21.501Z,5.15
2023-05-10T04:38:55.318Z,5.35
2023-05-10T04:41:22.130Z,5.78
2023-05-10T04:43:50.530Z,5.90
2023-05-10T04:46:17.701Z,6.03
2023-05-10T04:48:47.707Z,6.30
2023-05-10T04:51:14.545Z,5.43
2023-05-10T04:53:43.049Z,6.47
2023-05-10T04:56:13.366Z,6.93
2023-05-10T04:58:45.632Z,6.90
2023-05-10T05:01:12.578Z,6.88
2023-05-10T05:03:42.516Z,6.68
2023-05-10T05:06:09.543Z,6.53
2023-05-10T05:08:36.637Z,7.18
2023-05-10T05:11:03.576Z,7.43
2023-05-10T05:13:30.635Z,6.88
2023-05-10T05:15:57.811Z,7.00
2023-05-10T05:18:27.956Z,6.90
2023-05-10T05:20:54.861Z,7.63
2023-05-10T05:23:25.790Z,6.78
2023-05-10T05:25:53.835Z,7.35
2023-05-10T05:28:28.142Z,6.97
2023-05-10T05:30:57.081Z,7.63
2023-05-10T05:33:39.505Z,7.00
2023-05-10T05:36:14.987Z,6.75
2023-05-10T05:38:42.118Z,7.15
2023-05-10T05:41:09.052Z,7.22
2023-05-10T05:43:39.050Z,7.00
2023-05-10T05:46:06.183Z,6.63
2023-05-10T05:48:33.180Z,7.13
2023-05-10T05:51:00.261Z,6.90
2023-05-10T05:53:27.508Z,7.03
2023-05-10T05:55:58.911Z,7.00
2023-05-10T05:58:26.404Z,6.57
2023-05-10T06:00:55.665Z,7.40
2023-05-10T06:03:23.006Z,6.88
2023-05-10T06:05:50.128Z,6.95
2023-05-10T06:08:26.930Z,5.93
2023-05-10T06:10:53.832Z,6.35
2023-05-10T06:13:20.667Z,6.20
2023-05-10T06:15:47.890Z,6.53
2023-05-10T06:18:14.880Z,6.90
2023-05-10T06:20:55.810Z,6.15
2023-05-10T06:23:23.719Z,6.70
2023-05-10T06:25:50.717Z,6.80
2023-05-10T06:28:17.644Z,7.53
2023-05-10T06:30:44.771Z,6.95
2023-05-10T06:33:11.750Z,7.90
2023-05-10T06:36:01.868Z,7.57
2023-05-10T06:38:29.021Z,7.35
2023-05-10T06:40:57.894Z,7.65
2023-05-10T06:43:27.041Z,7.40
2023-05-10T06:49:29.092Z,7.18
2023-05-10T06:51:57.209Z,7.07
2023-05-10T06:54:27.012Z,6.30
2023-05-10T06:56:57.216Z,6.85
2023-05-10T06:59:25.234Z,6.60
2023-05-10T07:01:52.367Z,5.63
2023-05-10T07:04:19.382Z,5.35
2023-05-10T07:06:47.437Z,5.07
2023-05-10T07:09:17.341Z,5.28
2023-05-10T07:11:44.319Z,4.70
2023-05-10T07:14:11.166Z,4.68
2023-05-10T07:16:38.014Z,4.05
2023-05-10T07:19:06.422Z,3.55
2023-05-10T07:21:33.611Z,4.18
2023-05-10T07:24:01.322Z,3.28
2023-05-10T07:26:28.345Z,3.40
2023-05-10T07:29:20.380Z,2.75
2023-05-10T07:31:47.518Z,2.78
2023-05-10T07:34:14.360Z,2.25
2023-05-10T07:36:41.456Z,3.15
2023-05-10T07:39:08.761Z,2.08
2023-05-10T07:41:36.059Z,2.28
2023-05-10T07:44:03.263Z,2.13
2023-05-10T07:46:33.396Z,1.98
2023-05-10T07:49:00.295Z,2.47
2023-05-10T07:51:27.452Z,1.40
2023-05-10T07:53:58.867Z,2.00
2023-05-10T07:56:35.605Z,1.88
2023-05-10T07:59:04.763Z,1.90
2023-05-10T08:01:33.402Z,1.52
2023-05-10T08:04:01.218Z,2.00
2023-05-10T08:06:38.371Z,1.70
2023-05-10T08:09:05.212Z,2.20
2023-05-10T08:11:33.722Z,2.50
2023-05-10T08:14:01.728Z,2.40
2023-05-10T08:16:28.775Z,1.60
2023-05-10T08:18:56.567Z,1.73
2023-05-10T08:21:23.876Z,1.70
2023-05-10T08:23:51.006Z,1.98
2023-05-10T08:26:18.046Z,2.10
2023-05-10T08:28:44.892Z,1.80
2023-05-10T08:31:14.274Z,1.77
2023-05-10T08:34:20.575Z,1.92
2023-05-10T08:36:28.830Z,1.67
2023-05-10T08:38:56.159Z,1.75
2023-05-10T08:41:24.877Z,1.75
2023-05-10T08:43:52.701Z,2.15
2023-05-10T08:46:23.245Z,1.88
2023-05-10T08:48:53.303Z,1.67
2023-05-10T08:51:22.745Z,1.50
2023-05-10T08:53:49.709Z,2.33
2023-05-10T08:56:17.267Z,2.00
2023-05-10T08:58:46.675Z,2.33
2023-05-10T09:01:14.259Z,1.73
2023-05-10T09:03:41.314Z,1.90
2023-05-10T09:06:08.947Z,2.42
2023-05-10T09:08:35.881Z,2.60
2023-05-10T09:11:05.927Z,2.33
2023-05-10T09:13:32.982Z,2.28
2023-05-10T09:16:06.966Z,2.53
2023-05-10T09:18:41.353Z,3.13
2023-05-10T09:21:08.496Z,2.47
2023-05-10T09:23:38.797Z,3.17
2023-05-10T09:26:06.421Z,3.08
2023-05-10T09:28:35.042Z,3.92
2023-05-10T09:31:05.143Z,3.80
2023-05-10T09:33:44.829Z,2.83
2023-05-10T09:36:16.059Z,2.65
2023-05-10T09:38:50.442Z,2.70
2023-05-10T09:41:24.073Z,2.45
2023-05-10T09:43:51.348Z,2.13
2023-05-10T09:46:18.369Z,2.50
2023-05-10T09:48:46.812Z,2.05
2023-05-10T10:02:38.120Z,2.05
2023-05-10T10:05:10.738Z,2.00
2023-05-10T10:07:38.184Z,2.28
2023-05-10T10:10:07.367Z,2.28
2023-05-10T10:12:36.060Z,2.70
2023-05-10T10:15:03.435Z,2.95
2023-05-10T10:17:30.814Z,2.75
2023-05-10T10:20:02.745Z,2.20
2023-05-10T10:22:30.010Z,2.30
2023-05-10T10:24:57.317Z,2.00
2023-05-10T10:27:25.597Z,2.00
2023-05-10T10:30:17.436Z,2.40
2023-05-10T10:33:05.582Z,1.77
2023-05-10T10:35:37.733Z,2.05
2023-05-10T10:38:05.062Z,1.75
2023-05-10T10:40:35.299Z,2.40
2023-05-10T10:43:25.339Z,2.10
2023-05-10T10:46:11.802Z,1.58
2023-05-10T10:48:40.427Z,1.70
2023-05-10T10:51:07.402Z,1.67
2023-05-10T10:53:34.678Z,1.70
2023-05-10T10:56:16.433Z,2.50
2023-05-10T10:58:49.901Z,2.22
2023-05-10T11:01:21.874Z,1.73
2023-05-10T11:04:04.283Z,1.67
2023-05-10T11:06:32.772Z,1.80
2023-05-10T11:09:00.133Z,1.23
2023-05-10T11:11:27.200Z,1.77
2023-05-10T11:13:54.364Z,1.38
2023-05-10T11:16:28.194Z,1.45
2023-05-10T11:21:23.815Z,1.10
2023-05-10T11:23:53.420Z,1.10
2023-05-10T11:26:21.714Z,1.00
2023-05-10T11:28:49.390Z,1.02
2023-05-10T11:31:20.285Z,1.20
2023-05-10T11:33:51.802Z,1.33
2023-05-10T11:36:29.926Z,2.22
2023-05-10T11:38:57.662Z,1.63
2023-05-10T11:41:25.048Z,0.85
2023-05-10T11:43:53.349Z,1.00
2023-05-10T11:46:24.105Z,1.17
2023-05-10T11:49:11.222Z,1.08
2023-05-10T11:52:43.801Z,1.00
2023-05-10T11:55:11.036Z,1.00
2023-05-10T11:57:39.676Z,0.98
2023-05-10T12:00:07.615Z,0.90
2023-05-10T12:02:34.701Z,0.50
2023-05-10T12:05:01.907Z,0.70
2023-05-10T12:07:28.884Z,0.60
2023-05-10T12:10:11.371Z,0.90
2023-05-10T12:12:45.619Z,0.90
2023-05-10T12:15:23.270Z,0.80
2023-05-10T12:17:50.811Z,0.88
2023-05-10T12:20:22.322Z,0.80
2023-05-10T12:23:00.724Z,0.90
2023-05-10T12:25:31.926Z,0.77
2023-05-10T12:28:02.080Z,0.90
2023-05-10T12:30:30.170Z,0.90
2023-05-10T12:33:18.020Z,0.90
2023-05-10T12:35:49.309Z,0.70
2023-05-10T12:38:34.204Z,1.05
2023-05-10T12:41:02.532Z,0.75
2023-05-10T12:43:29.576Z,0.80
2023-05-10T12:45:57.203Z,0.90
2023-05-10T12:48:24.350Z,1.02
2023-05-10T12:50:54.497Z,1.50
2023-05-10T12:53:21.559Z,0.90
2023-05-10T12:55:48.611Z,1.05
2023-05-10T12:58:27.811Z,0.88
2023-05-10T13:01:01.980Z,0.88
2023-05-10T13:03:29.022Z,0.95
2023-05-10T13:05:56.133Z,1.10
2023-05-10T13:08:26.210Z,0.90
2023-05-10T13:10:53.325Z,1.02
2023-05-10T13:13:21.454Z,1.00
2023-05-10T13:15:48.461Z,1.08
2023-05-10T13:18:15.572Z,1.15
2023-05-10T13:20:44.215Z,1.60
2023-05-10T13:23:11.641Z,1.40
2023-05-10T13:25:38.860Z,1.00
2023-05-10T13:28:06.524Z,1.33
2023-05-10T13:30:33.466Z,1.00
2023-05-10T13:33:00.499Z,1.00
2023-05-10T13:35:32.412Z,0.70
2023-05-10T13:37:59.408Z,0.80
2023-05-10T13:40:29.452Z,0.77
2023-05-10T13:42:59.473Z,0.88
2023-05-10T13:45:26.662Z,0.88
2023-05-10T13:47:56.271Z,1.30
2023-05-10T13:50:23.385Z,1.05
2023-05-10T13:52:52.330Z,1.02
2023-05-10T13:55:19.840Z,0.90
2023-05-10T13:57:56.080Z,0.90
2023-05-10T14:00:26.137Z,1.15
2023-05-10T14:02:56.438Z,0.88
2023-05-10T14:05:26.959Z,1.27
2023-05-10T14:07:57.570Z,0.98
2023-05-10T14:10:25.160Z,0.98
2023-05-10T14:12:57.308Z,1.00
2023-05-10T14:15:24.614Z,0.57
2023-05-10T14:17:52.227Z,1.00
2023-05-10T14:20:19.676Z,0.80
2023-05-10T14:22:49.123Z,1.05
2023-05-10T14:25:17.229Z,1.00
2023-05-10T14:27:44.951Z,1.00
2023-05-10T14:30:12.519Z,0.80
2023-05-10T14:32:39.985Z,0.90
2023-05-10T14:35:13.122Z,0.90
2023-05-10T14:37:40.710Z,0.70
2023-05-10T14:40:18.443Z,1.13
2023-05-10T14:42:45.797Z,0.90
2023-05-10T14:45:13.231Z,0.90
2023-05-10T14:47:40.435Z,0.57
2023-05-10T14:50:21.495Z,0.60
2023-05-10T14:53:00.157Z,0.50
2023-05-10T14:55:32.191Z,0.80
2023-05-10T14:58:03.084Z,0.60
2023-05-10T15:00:31.040Z,0.88
2023-05-10T15:02:59.219Z,0.70
2023-05-10T15:05:27.377Z,0.73
2023-05-10T15:07:55.161Z,0.90
2023-05-10T15:10:25.045Z,0.90
2023-05-10T15:12:54.282Z,0.57
2023-05-10T15:15:25.161Z,0.60
2023-05-10T15:17:55.334Z,0.85
2023-05-10T15:20:23.012Z,0.68
2023-05-10T15:22:50.224Z,0.50
2023-05-10T15:25:17.792Z,0.60
2023-05-10T15:27:45.554Z,0.50
2023-05-10T15:30:15.688Z,0.90
2023-05-10T15:32:44.077Z,0.50
2023-05-10T15:35:11.722Z,0.50
2023-05-10T15:37:39.309Z,0.50
2023-05-10T15:40:13.810Z,0.80
2023-05-10T15:42:56.197Z,0.65
2023-05-10T15:45:26.615Z,0.80
2023-05-10T15:48:03.065Z,0.50
2023-05-10T15:50:33.559Z,0.70
2023-05-10T15:53:23.668Z,0.38
2023-05-10T15:55:51.121Z,0.50
2023-05-10T15:58:18.356Z,0.50
2023-05-10T16:00:45.308Z,0.60
2023-05-10T16:03:13.015Z,0.55
2023-05-10T16:05:40.346Z,0.60
2023-05-10T16:08:17.393Z,0.50
2023-05-10T16:10:45.352Z,0.40
2023-05-10T16:13:19.448Z,1.00
2023-05-10T16:15:47.028Z,0.70
2023-05-10T16:18:14.154Z,0.50
2023-05-10T16:20:41.836Z,0.70
2023-05-10T16:23:12.058Z,0.50
2023-05-10T16:25:39.294Z,0.50
2023-05-10T16:28:09.081Z,0.50
2023-05-10T16:30:42.937Z,0.45
2023-05-10T16:33:21.053Z,0.40
2023-05-10T16:35:48.401Z,0.60
2023-05-10T16:38:22.095Z,0.50
2023-05-10T16:40:49.586Z,1.25
2023-05-10T16:43:26.284Z,0.52
2023-05-10T16:45:53.390Z,0.40
2023-05-10T16:48:37.509Z,0.40
2023-05-10T16:51:05.110Z,0.55
2023-05-10T16:53:43.661Z,0.50
2023-05-10T16:56:11.317Z,0.50
2023-05-10T16:58:38.410Z,0.60
2023-05-10T17:01:05.575Z,0.50
2023-05-10T17:03:32.802Z,0.63
2023-05-10T17:06:00.005Z,1.05
2023-05-10T17:08:29.465Z,0.73
2023-05-10T17:10:56.999Z,0.73
2023-05-10T17:13:30.658Z,0.77
2023-05-10T17:15:58.217Z,0.70
2023-05-10T17:18:26.855Z,2.15
2023-05-10T17:20:56.725Z,0.88
2023-05-10T17:23:33.471Z,0.80
2023-05-10T17:26:54.780Z,0.60
2023-05-10T17:29:49.924Z,1.13
2023-05-10T17:32:17.039Z,0.80
2023-05-10T17:34:55.689Z,0.80
2023-05-10T17:37:23.441Z,1.02
2023-05-10T17:39:56.441Z,0.60
2023-05-10T17:42:25.558Z,0.98
2023-05-10T17:44:53.099Z,0.93
2023-05-10T17:47:23.276Z,0.80
2023-05-10T17:49:55.954Z,0.95
2023-05-10T17:52:25.712Z,0.90
2023-05-10T17:54:56.034Z,1.13
2023-05-10T17:57:45.192Z,0.80
2023-05-10T18:00:15.889Z,0.90
2023-05-10T18:02:44.541Z,1.13
2023-05-10T18:05:57.275Z,1.10
2023-05-10T18:08:29.086Z,0.90
2023-05-10T18:11:02.173Z,0.85
2023-05-10T18:13:29.562Z,1.00
2023-05-10T18:15:59.515Z,1.00
2023-05-10T18:18:32.712Z,0.93
2023-05-10T18:20:59.689Z,1.20
2023-05-10T18:23:53.375Z,0.93
2023-05-10T18:26:25.491Z,1.35
2023-05-10T18:28:52.634Z,1.48
2023-05-10T18:31:23.391Z,1.10
2023-05-10T18:36:55.015Z,1.37
2023-05-10T18:39:22.758Z,1.20
2023-05-10T18:42:02.296Z,1.00
2023-05-10T18:44:57.110Z,1.13
2023-05-10T18:47:26.532Z,1.13
2023-05-10T18:50:01.020Z,1.80
2023-05-10T18:52:27.987Z,1.95
2023-05-10T18:55:01.440Z,1.48
2023-05-10T18:57:31.485Z,1.48
2023-05-10T19:00:02.225Z,1.50
2023-05-10T19:02:29.446Z,1.70
2023-05-10T19:04:59.879Z,1.33
2023-05-10T19:07:36.270Z,1.20
2023-05-10T19:10:03.901Z,1.20
2023-05-10T19:12:30.964Z,1.10
2023-05-10T19:15:01.362Z,1.70
2023-05-10T19:17:34.859Z,2.63
2023-05-10T19:22:45.531Z,1.38
2023-05-10T19:25:21.041Z,1.60
2023-05-10T19:27:48.486Z,1.45
2023-05-10T19:30:18.816Z,2.00
2023-05-10T19:32:46.113Z,2.20
2023-05-10T19:35:17.448Z,1.75
2023-05-10T19:37:52.704Z,1.48
2023-05-10T19:40:28.808Z,1.60
2023-05-10T19:42:57.300Z,2.30
2023-05-10T19:45:24.314Z,2.28
2023-05-10T19:47:51.554Z,2.20
2023-05-10T19:50:27.583Z,1.98
2023-05-10T19:52:56.646Z,2.47
2023-05-10T19:55:30.865Z,1.70
2023-05-10T19:58:00.744Z,2.63
2023-05-10T20:00:28.027Z,2.45
2023-05-10T20:02:59.766Z,2.30
2023-05-10T20:05:49.394Z,2.28
2023-05-10T20:08:17.211Z,1.88
2023-05-10T20:13:32.347Z,1.92
2023-05-10T20:13:51.945Z,1.40
2023-05-10T20:19:57.645Z,1.58
2023-05-10T20:26:02.030Z,1.83
2023-05-10T20:28:43.102Z,1.65
2023-05-10T20:31:10.094Z,1.05
2023-05-10T20:33:40.266Z,0.80
2023-05-10T20:36:43.952Z,0.90
2023-05-10T20:39:10.870Z,0.50
2023-05-10T20:41:45.413Z,0.82
2023-05-10T20:44:12.478Z,0.50
2023-05-10T20:46:39.658Z,0.50
2023-05-10T20:49:13.414Z,0.70
2023-05-10T20:52:13.759Z,0.60
2023-05-10T20:54:46.128Z,0.60
2023-05-10T20:57:13.543Z,0.63
2023-05-10T20:59:46.311Z,0.55
2023-05-10T21:02:19.460Z,0.70
2023-05-10T21:04:48.982Z,0.83
2023-05-10T21:07:16.623Z,0.82
2023-05-10T21:09:46.044Z,0.82
2023-05-10T21:12:17.561Z,0.80
2023-05-10T21:14:46.882Z,1.30
2023-05-10T21:17:20.039Z,0.80
2023-05-10T21:19:55.784Z,1.00
2023-05-10T21:22:23.293Z,0.85
2023-05-10T21:24:50.287Z,1.20
2023-05-10T21:27:19.790Z,1.10
2023-05-10T21:29:47.280Z,0.90
2023-05-10T21:32:15.026Z,0.85
2023-05-10T21:34:42.669Z,1.17
2023-05-10T21:37:15.381Z,0.82
2023-05-10T21:40:56.691Z,1.08
2023-05-10T21:46:17.653Z,0.70
2023-05-10T21:48:47.704Z,0.80
2023-05-10T21:51:16.808Z,0.80
2023-05-10T21:53:43.937Z,0.77
2023-05-10T21:56:11.244Z,0.70
2023-05-10T21:58:43.359Z,0.73
2023-05-10T22:03:51.522Z,1.00
2023-05-10T22:06:18.487Z,0.90
2023-05-10T22:08:45.564Z,1.10
2023-05-10T22:11:31.623Z,1.10
2023-05-10T22:14:15.110Z,1.42
2023-05-10T22:16:41.925Z,1.40
2023-05-10T22:22:24.421Z,2.40
2023-05-10T22:25:04.407Z,2.10
2023-05-10T22:27:46.781Z,1.92
2023-05-10T22:30:51.763Z,2.25
2023-05-10T22:33:24.487Z,1.67
2023-05-10T22:36:24.779Z,1.38
2023-05-10T22:38:54.897Z,1.20
2023-05-10T22:41:23.410Z,1.02
2023-05-10T22:43:52.966Z,1.00
2023-05-10T22:46:19.939Z,1.30
2023-05-10T22:48:48.687Z,0.98
2023-05-10T22:51:15.501Z,1.10
2023-05-10T22:53:54.728Z,0.82
2023-05-10T22:56:42.516Z,0.80
2023-05-10T23:02:05.275Z,0.93
2023-05-10T23:04:39.962Z,0.82
2023-05-10T23:07:24.977Z,0.77
2023-05-10T23:09:52.420Z,1.08
2023-05-10T23:12:19.399Z,0.65
2023-05-10T23:14:54.153Z,0.77
2023-05-10T23:17:21.506Z,0.85
2023-05-10T23:19:53.368Z,0.70
2023-05-10T23:22:30.688Z,0.80
2023-05-10T23:25:08.115Z,0.70
2023-05-10T23:27:35.359Z,0.70
2023-05-10T23:30:03.216Z,0.80
2023-05-10T23:32:30.410Z,0.60
2023-05-10T23:34:57.662Z,0.55
2023-05-10T23:37:30.749Z,0.80
2023-05-10T23:39:57.821Z,0.70
2023-05-10T23:42:24.767Z,0.77
2023-05-10T23:44:52.497Z,0.68
2023-05-10T23:47:38.142Z,0.55
2023-05-10T23:50:05.768Z,0.57
2023-05-10T23:52:35.402Z,0.82
2023-05-10T23:55:04.438Z,0.63
2023-05-10T23:57:33.833Z,0.50
